Time;durP1;ratioP1;P1;durP2;ratioP2;P2;SDS_P1;SDS_P2;PMS_P1;PMS_P2;Temp;Humidity;BMP_temperature;BMP_pressure;BME280_temperature;BME280_humidity;BME280_pressure;Samples;Min_cycle;Max_cycle;Signal;HPM_P1;HPM_P2
2024/02/22 00:01:37;;;;;;;1.77;0.95;;;17.70;73.00;;;;;;6256099;22;20136;-84
2024/02/22 00:04:03;;;;;;;1.92;1.00;;;17.80;72.40;;;;;;6230464;22;20697;-84
2024/02/22 00:06:29;;;;;;;3.47;0.70;;;17.70;72.50;;;;;;6255862;22;20187;-84
2024/02/22 00:08:55;;;;;;;1.05;0.70;;;17.70;72.70;;;;;;6255730;22;20172;-84
2024/02/22 00:11:21;;;;;;;1.58;0.75;;;17.70;72.50;;;;;;6229998;22;20190;-84
2024/02/22 00:13:49;;;;;;;2.90;0.80;;;17.70;72.40;;;;;;6230136;22;20139;-84
2024/02/22 00:16:20;;;;;;;2.70;0.65;;;17.70;72.30;;;;;;6204618;22;20156;-84
2024/02/22 00:18:46;;;;;;;1.13;0.60;;;17.80;72.30;;;;;;6205076;22;20152;-84
2024/02/22 00:21:13;;;;;;;2.72;0.88;;;17.70;72.40;;;;;;6255940;22;20589;-84
2024/02/22 00:23:39;;;;;;;1.25;0.88;;;17.70;72.70;;;;;;6256530;22;20120;-84
2024/02/22 00:26:05;;;;;;;1.67;0.50;;;17.70;72.80;;;;;;6229929;22;20206;-84
2024/02/22 00:28:31;;;;;;;2.03;0.80;;;17.80;72.50;;;;;;6255258;22;20171;-84
2024/02/22 00:30:57;;;;;;;0.98;0.63;;;17.80;73.00;;;;;;6230383;22;20232;-83
2024/02/22 00:33:23;;;;;;;2.63;0.70;;;17.70;72.00;;;;;;6229946;22;20571;-84
2024/02/22 00:35:49;;;;;;;1.80;0.80;;;17.70;72.60;;;;;;6230513;22;20179;-85
2024/02/22 00:38:15;;;;;;;2.58;0.60;;;17.80;72.40;;;;;;6230344;22;20147;-84
2024/02/22 00:40:41;;;;;;;2.33;0.80;;;17.70;72.70;;;;;;6255432;22;20148;-84
2024/02/22 00:43:07;;;;;;;1.13;0.50;;;17.70;72.30;;;;;;6253765;22;20171;-84
2024/02/22 00:45:34;;;;;;;1.50;0.55;;;17.70;72.40;;;;;;6255132;22;20192;-84
2024/02/22 00:48:00;;;;;;;2.53;0.52;;;17.80;72.40;;;;;;6230221;22;20147;-84
2024/02/22 00:50:27;;;;;;;1.38;0.47;;;17.70;72.30;;;;;;6228908;22;20522;-83
2024/02/22 00:52:54;;;;;;;2.92;0.70;;;17.70;72.00;;;;;;6230190;22;20534;-84
2024/02/22 00:55:20;;;;;;;5.05;0.90;;;17.70;72.40;;;;;;6230117;22;20227;-84
2024/02/22 00:57:46;;;;;;;1.42;0.82;;;17.70;72.30;;;;;;6255603;22;20286;-83
2024/02/22 01:00:12;;;;;;;2.47;0.60;;;17.60;72.40;;;;;;6255184;22;20513;-85
2024/02/22 01:02:38;;;;;;;1.85;0.60;;;17.60;72.30;;;;;;6229550;22;20475;-84
2024/02/22 01:05:04;;;;;;;0.85;0.63;;;17.60;72.60;;;;;;6255249;22;20618;-84
2024/02/22 01:07:31;;;;;;;2.88;0.55;;;17.60;72.50;;;;;;6255202;22;20133;-83
2024/02/22 01:09:57;;;;;;;2.85;0.70;;;17.60;73.20;;;;;;6255065;22;20144;-83
2024/02/22 01:12:23;;;;;;;3.03;1.00;;;17.70;72.40;;;;;;6280450;22;20218;-84
2024/02/22 01:14:49;;;;;;;2.72;0.88;;;17.60;72.20;;;;;;6229872;22;20547;-84
2024/02/22 01:17:16;;;;;;;1.58;0.60;;;17.60;72.40;;;;;;6230310;22;20151;-83
2024/02/22 01:19:45;;;;;;;1.63;0.90;;;17.60;72.30;;;;;;6256068;22;20144;-84
2024/02/22 01:22:11;;;;;;;1.67;0.68;;;17.60;72.30;;;;;;6255419;22;20559;-84
2024/02/22 01:24:37;;;;;;;2.47;0.80;;;17.70;72.50;;;;;;6254858;22;20510;-84
2024/02/22 01:27:07;;;;;;;3.28;0.70;;;17.60;72.50;;;;;;6230112;22;20140;-84
2024/02/22 01:29:36;;;;;;;2.88;0.82;;;17.60;72.30;;;;;;6179639;22;20152;-84
2024/02/22 01:32:02;;;;;;;1.63;0.70;;;17.60;72.50;;;;;;6203928;22;20171;-84
2024/02/22 01:34:28;;;;;;;1.42;0.57;;;17.60;72.30;;;;;;6255415;22;20132;-84
2024/02/22 01:36:57;;;;;;;2.63;0.55;;;17.60;72.30;;;;;;6281222;22;20187;-84
2024/02/22 01:39:23;;;;;;;4.40;0.73;;;17.50;72.30;;;;;;6228934;22;20148;-84
2024/02/22 01:41:49;;;;;;;1.63;0.82;;;17.60;72.70;;;;;;6306113;22;20150;-84
2024/02/22 01:44:14;;;;;;;2.10;0.80;;;17.50;72.30;;;;;;6230330;22;20136;-84
2024/02/22 01:57:18;;;;;;;1.60;0.65;;;17.60;72.50;;;;;;6273554;22;20204;-84
2024/02/22 01:59:44;;;;;;;3.72;0.70;;;17.60;72.40;;;;;;6224054;22;20157;-85
2024/02/22 02:02:10;;;;;;;1.73;0.85;;;17.50;72.10;;;;;;6225232;22;20151;-85
2024/02/22 02:04:36;;;;;;;1.23;0.60;;;17.50;72.50;;;;;;6199337;22;20144;-84
2024/02/22 02:07:02;;;;;;;1.48;0.70;;;17.50;72.30;;;;;;6225565;22;20144;-85
2024/02/22 02:09:27;;;;;;;1.42;0.60;;;17.50;72.10;;;;;;6279069;22;20552;-84
2024/02/22 02:11:53;;;;;;;1.35;0.70;;;17.50;72.30;;;;;;6202210;22;20168;-84
2024/02/22 02:14:20;;;;;;;1.40;0.40;;;17.50;72.40;;;;;;6226295;22;20145;-85
2024/02/22 02:16:46;;;;;;;0.82;0.55;;;17.60;72.10;;;;;;6226619;22;20144;-84
2024/02/22 02:19:19;;;;;;;2.35;1.00;;;17.50;72.30;;;;;;6278675;22;20128;-84
2024/02/22 02:22:07;;;;;;;3.80;0.70;;;17.50;73.40;;;;;;6176451;22;20203;-85
2024/02/22 02:24:41;;;;;;;1.40;0.60;;;17.50;72.70;;;;;;6252488;22;20148;-84
2024/02/22 02:27:06;;;;;;;2.38;0.57;;;17.40;72.30;;;;;;6202613;22;20473;-84
2024/02/22 02:29:32;;;;;;;2.05;1.02;;;17.50;72.70;;;;;;6201214;22;20141;-84
2024/02/22 02:31:58;;;;;;;2.63;0.98;;;17.50;72.80;;;;;;6226290;22;20568;-85
2024/02/22 02:34:28;;;;;;;1.80;0.73;;;17.50;72.50;;;;;;6278166;22;20137;-84
2024/02/22 02:36:54;;;;;;;3.38;0.75;;;17.40;72.60;;;;;;6200421;22;20202;-84
2024/02/22 02:39:21;;;;;;;4.30;0.80;;;17.50;72.30;;;;;;6278752;22;20203;-84
2024/02/22 02:41:47;;;;;;;1.13;0.70;;;17.50;72.40;;;;;;6226676;22;20239;-84
2024/02/22 02:44:14;;;;;;;1.23;0.68;;;17.40;72.70;;;;;;6226575;22;20164;-84
2024/02/22 02:46:40;;;;;;;3.05;0.73;;;17.40;72.70;;;;;;6225875;22;20192;-84
2024/02/22 02:49:07;;;;;;;2.67;0.60;;;17.50;72.40;;;;;;6226043;22;20190;-84
2024/02/22 02:51:33;;;;;;;1.58;0.80;;;17.50;72.60;;;;;;6226131;22;20129;-85
2024/02/22 02:53:59;;;;;;;0.45;0.45;;;17.40;72.30;;;;;;6201284;22;20160;-85
2024/02/22 02:56:24;;;;;;;1.38;0.55;;;17.40;72.70;;;;;;6226093;22;20136;-85
2024/02/22 02:58:52;;;;;;;1.08;0.68;;;17.40;72.90;;;;;;6201717;22;20149;-85
2024/02/22 03:01:18;;;;;;;2.58;0.80;;;17.40;72.90;;;;;;6175278;22;20149;-84
2024/02/22 03:03:44;;;;;;;1.20;0.57;;;17.40;73.00;;;;;;6226245;22;20152;-85
2024/02/22 03:06:11;;;;;;;2.85;1.27;;;17.30;73.00;;;;;;6225798;22;20233;-83
2024/02/22 03:08:42;;;;;;;1.75;0.68;;;17.40;72.70;;;;;;6201296;22;20152;-84
2024/02/22 05:11:08;;;;;;;1.58;0.70;;;17.20;72.30;;;;;;6272148;22;20188;31
2024/02/22 05:13:35;;;;;;;1.55;0.82;;;17.20;72.60;;;;;;6145863;22;20663;-83
2024/02/22 05:16:02;;;;;;;1.10;0.68;;;17.20;72.40;;;;;;6122591;22;20164;-82
2024/02/22 05:18:28;;;;;;;3.53;0.55;;;17.30;72.50;;;;;;6098703;22;20156;-84
2024/02/22 05:20:56;;;;;;;1.52;0.70;;;17.20;72.90;;;;;;6148033;22;20153;-85
2024/02/22 05:23:24;;;;;;;1.58;0.77;;;17.20;72.70;;;;;;6147916;22;20211;-85
2024/02/22 05:25:50;;;;;;;1.80;0.70;;;17.20;72.60;;;;;;6123756;22;20172;-85
2024/02/22 05:28:16;;;;;;;1.20;0.75;;;17.30;72.70;;;;;;6148892;22;20170;-85
2024/02/22 05:30:42;;;;;;;1.10;0.93;;;17.10;72.60;;;;;;6098078;22;20129;-85
2024/02/22 05:33:11;;;;;;;1.52;0.68;;;17.20;72.90;;;;;;6098195;22;20145;-84
2024/02/22 05:35:38;;;;;;;2.38;0.65;;;17.20;72.60;;;;;;6147508;22;20247;-85
2024/02/22 05:38:05;;;;;;;1.05;0.63;;;17.20;72.60;;;;;;6122143;22;20167;-85
2024/02/22 05:40:31;;;;;;;1.67;0.77;;;17.20;72.50;;;;;;6146836;22;20243;-85
2024/02/22 05:42:58;;;;;;;2.47;0.70;;;17.20;72.70;;;;;;6145923;22;20132;-84
2024/02/22 05:45:42;;;;;;;0.80;0.70;;;17.20;72.20;;;;;;6122763;22;20172;-85
2024/02/22 05:48:09;;;;;;;3.13;0.90;;;17.20;72.60;;;;;;6152165;22;20202;-86
2024/02/22 05:50:35;;;;;;;1.38;0.75;;;17.20;72.40;;;;;;6097937;22;20147;-84
2024/02/22 05:53:01;;;;;;;1.50;0.75;;;17.20;72.70;;;;;;6123029;22;20125;-86
2024/02/22 05:55:28;;;;;;;3.75;0.80;;;17.10;72.60;;;;;;6121769;22;20145;-85
2024/02/22 05:57:56;;;;;;;1.42;0.70;;;17.20;72.70;;;;;;6147301;22;20552;-85
2024/02/22 06:00:24;;;;;;;1.23;0.73;;;17.10;72.50;;;;;;6171480;22;20228;-86
2024/02/22 06:02:50;;;;;;;1.25;0.70;;;17.20;72.60;;;;;;6123579;22;20144;-85
2024/02/22 06:05:16;;;;;;;1.23;0.70;;;17.10;72.60;;;;;;6145718;22;20204;-85
2024/02/22 06:07:43;;;;;;;2.95;0.80;;;17.10;72.50;;;;;;6147335;22;20569;-85
2024/02/22 06:10:10;;;;;;;1.35;0.50;;;17.10;72.60;;;;;;6146472;22;20151;-85
2024/02/22 06:12:36;;;;;;;1.27;0.80;;;17.10;72.30;;;;;;6146306;22;20188;-86
2024/02/22 06:15:03;;;;;;;1.13;0.70;;;17.10;72.60;;;;;;6121224;22;20595;-85
2024/02/22 06:17:30;;;;;;;1.33;0.45;;;17.10;72.40;;;;;;6123508;22;20121;-85
2024/02/22 06:19:57;;;;;;;1.58;0.60;;;17.10;72.60;;;;;;6123545;22;20129;-85
2024/02/22 06:22:25;;;;;;;1.58;0.95;;;17.10;72.50;;;;;;6097300;22;20144;-85
2024/02/22 06:24:53;;;;;;;0.65;0.47;;;17.20;72.50;;;;;;6120907;22;20159;-85
2024/02/22 06:27:20;;;;;;;0.82;0.70;;;17.10;72.60;;;;;;6122143;22;20156;-85
2024/02/22 06:29:46;;;;;;;2.45;0.65;;;17.20;72.50;;;;;;6145719;22;20207;-84
2024/02/22 06:32:12;;;;;;;1.17;0.70;;;17.20;72.50;;;;;;6121963;22;20136;-85
2024/02/22 06:34:38;;;;;;;2.10;0.70;;;17.20;72.30;;;;;;6097346;22;20137;-85
2024/02/22 06:37:05;;;;;;;1.05;0.90;;;17.20;72.60;;;;;;6121127;22;20140;-85
2024/02/22 06:39:31;;;;;;;1.27;0.80;;;17.10;72.50;;;;;;6121595;22;20464;-84
2024/02/22 06:41:58;;;;;;;1.38;0.77;;;17.10;72.50;;;;;;6146634;22;20147;-85
2024/02/22 06:44:27;;;;;;;2.45;0.82;;;17.10;72.30;;;;;;6145821;22;20176;-85
2024/02/22 06:46:53;;;;;;;1.10;0.50;;;17.20;72.60;;;;;;6221826;22;20184;-84
2024/02/22 06:49:22;;;;;;;0.93;0.60;;;17.10;72.40;;;;;;6121148;22;20198;-85
2024/02/22 06:51:48;;;;;;;1.77;0.70;;;17.10;72.30;;;;;;6221386;22;20198;-84
2024/02/22 06:54:14;;;;;;;2.20;0.70;;;17.20;72.40;;;;;;6146589;22;20220;-85
2024/02/22 06:56:41;;;;;;;1.42;0.77;;;17.10;72.30;;;;;;6122881;22;20140;-85
2024/02/22 06:59:08;;;;;;;1.95;0.90;;;17.10;72.30;;;;;;6147441;22;20152;-84
2024/02/22 07:26:13;;;;;;;0.98;0.70;;;17.40;70.30;;;;;;6277366;22;20291;-84
2024/02/22 07:28:42;;;;;;;1.48;0.85;;;17.40;70.90;;;;;;6226766;22;20137;-84
2024/02/22 07:31:09;;;;;;;0.95;0.60;;;17.30;70.50;;;;;;6226296;22;20581;-84
2024/02/22 07:33:35;;;;;;;1.63;0.93;;;17.30;70.40;;;;;;6251450;22;20564;-84
2024/02/22 07:36:00;;;;;;;1.58;0.70;;;17.30;70.70;;;;;;6203078;22;20160;-84
2024/02/22 07:38:26;;;;;;;0.90;0.60;;;17.40;70.70;;;;;;6204042;22;20149;-84
2024/02/22 07:40:54;;;;;;;1.42;0.88;;;17.30;71.50;;;;;;6230473;22;20155;-84
2024/02/22 07:43:20;;;;;;;1.63;0.90;;;17.30;70.50;;;;;;6207644;22;20148;-84
2024/02/22 07:45:45;;;;;;;1.30;0.80;;;17.30;70.30;;;;;;6232992;22;20217;-83
2024/02/22 07:48:12;;;;;;;1.73;0.70;;;17.30;70.20;;;;;;6257838;22;20129;-84
2024/02/22 07:50:38;;;;;;;2.17;0.70;;;17.30;71.40;;;;;;6208976;22;20149;-84
2024/02/22 07:53:08;;;;;;;0.77;0.73;;;17.30;71.00;;;;;;6234756;22;20141;-84
2024/02/22 07:55:34;;;;;;;1.77;0.60;;;17.30;70.70;;;;;;6208427;22;20159;-84
2024/02/22 07:58:00;;;;;;;1.80;0.75;;;17.30;70.80;;;;;;6259445;22;20568;-85
2024/02/22 08:00:26;;;;;;;0.70;0.60;;;17.30;71.20;;;;;;6210782;22;20228;-85
2024/02/22 08:02:52;;;;;;;1.02;0.60;;;17.30;70.80;;;;;;6234863;22;20125;-84
2024/02/22 08:05:18;;;;;;;0.82;0.80;;;17.30;70.10;;;;;;6207698;22;20179;-86
2024/02/22 08:07:47;;;;;;;0.70;0.70;;;17.30;70.20;;;;;;6209622;22;20224;-85
2024/02/22 08:10:13;;;;;;;1.10;0.63;;;17.30;71.60;;;;;;6209678;22;20140;-84
2024/02/22 08:12:40;;;;;;;0.82;0.70;;;17.30;70.80;;;;;;6235675;22;20133;-84
2024/02/22 08:15:07;;;;;;;1.75;0.80;;;17.30;70.10;;;;;;6236103;22;20148;-85
2024/02/22 08:17:36;;;;;;;2.75;1.13;;;17.40;70.40;;;;;;6216429;23;20504;-84
2024/02/22 08:20:07;;;;;;;4.80;0.90;;;17.30;70.60;;;;;;6204034;23;20153;-86
2024/02/22 08:22:41;;;;;;;5.93;1.10;;;17.40;70.60;;;;;;6167947;23;20162;-83
2024/02/22 08:25:12;;;;;;;22.00;2.33;;;17.30;70.80;;;;;;6120285;23;20203;-83
2024/02/22 08:27:40;;;;;;;10.20;1.33;;;17.30;70.90;;;;;;6113669;23;20147;-84
2024/02/22 08:30:09;;;;;;;17.40;2.05;;;17.30;70.40;;;;;;6111339;23;20237;-83
2024/02/22 08:32:35;;;;;;;16.27;1.63;;;17.30;71.00;;;;;;6160303;23;20614;-82
2024/02/22 08:35:01;;;;;;;8.40;1.40;;;17.30;70.80;;;;;;6135842;23;20186;-83
2024/02/22 08:37:27;;;;;;;11.52;1.40;;;17.30;70.40;;;;;;6137879;23;20159;-86
2024/02/22 08:39:54;;;;;;;11.20;1.67;;;17.40;70.50;;;;;;6137894;23;20158;-83
2024/02/22 08:42:20;;;;;;;6.55;0.90;;;17.40;70.20;;;;;;6088280;23;20148;-84
2024/02/22 08:44:54;;;;;;;4.90;0.90;;;17.40;69.80;;;;;;6137754;23;20238;-83
2024/02/22 08:47:22;;;;;;;6.75;1.00;;;17.40;69.60;;;;;;6169157;23;20154;-85
2024/02/22 08:49:55;;;;;;;3.95;1.02;;;17.50;70.10;;;;;;6180076;23;20145;-85
2024/02/22 08:52:56;;;;;;;3.10;0.90;;;17.50;70.00;;;;;;6205125;23;20134;-83
2024/02/22 08:55:35;;;;;;;4.00;1.35;;;17.50;69.90;;;;;;6205169;23;20156;-83
2024/02/22 08:58:41;;;;;;;;;;;;;;;;;;;;;
2024/02/22 09:01:11;;;;;;;3.97;0.80;;;17.50;70.00;;;;;;6090160;23;20218;-84
2024/02/22 09:04:12;;;;;;;6.43;1.25;;;17.50;69.60;;;;;;6074002;23;20213;-83
2024/02/22 09:06:51;;;;;;;2.42;0.90;;;17.50;70.20;;;;;;5979675;24;20728;-83
2024/02/22 09:09:39;;;;;;;5.32;0.95;;;17.40;70.20;;;;;;5916094;24;20156;-82
2024/02/22 09:12:14;;;;;;;2.10;0.77;;;17.50;70.40;;;;;;5985489;24;20153;-83
2024/02/22 09:14:47;;;;;;;4.32;0.88;;;17.50;69.70;;;;;;5962915;24;20239;-82
2024/02/22 09:17:15;;;;;;;2.67;0.90;;;17.60;69.60;;;;;;5978548;24;20164;-83
2024/02/22 09:19:46;;;;;;;3.65;1.00;;;17.60;69.40;;;;;;5936242;24;20186;-83
2024/02/22 09:22:13;;;;;;;3.33;0.93;;;17.60;69.00;;;;;;5915844;24;20165;-84
2024/02/22 09:24:46;;;;;;;5.95;0.88;;;17.70;69.00;;;;;;5950607;24;20202;-84
2024/02/22 09:27:29;;;;;;;2.20;0.90;;;17.70;69.00;;;;;;5958740;24;20286;-82
2024/02/22 09:30:18;;;;;;;2.25;0.75;;;17.70;69.00;;;;;;5962193;24;20152;-84
2024/02/22 09:33:04;;;;;;;3.40;0.88;;;17.70;69.10;;;;;;6021828;23;20157;-83
2024/02/22 09:35:46;;;;;;;;;;;;;;;;;;;;;
2024/02/22 09:38:18;;;;;;;1.75;0.70;;;17.70;68.70;;;;;;6029346;23;20154;-83
2024/02/22 09:41:11;;;;;;;1.30;0.70;;;17.70;68.90;;;;;;5994306;23;20155;-85
2024/02/22 09:43:40;;;;;;;2.88;0.70;;;17.70;69.40;;;;;;6052816;23;20220;-84
2024/02/22 09:46:11;;;;;;;2.88;0.90;;;17.70;68.90;;;;;;6054580;23;20260;-83
2024/02/22 09:48:43;;;;;;;3.67;0.90;;;17.70;69.30;;;;;;6019669;23;20653;-82
2024/02/22 09:51:12;;;;;;;2.92;1.00;;;17.70;69.40;;;;;;6050715;23;20158;-83
2024/02/22 10:00:31;;;;;;;3.72;0.70;;;17.70;69.60;;;;;;5973070;24;20648;-84
2024/02/22 10:02:57;;;;;;;1.45;0.88;;;17.70;69.00;;;;;;5922690;24;20707;-84
2024/02/22 10:05:23;;;;;;;2.28;0.80;;;17.70;68.80;;;;;;5944458;24;20198;-85
2024/02/22 10:07:54;;;;;;;2.60;0.85;;;17.90;69.30;;;;;;5946853;23;20151;-84
2024/02/22 10:10:27;;;;;;;2.97;0.80;;;17.80;68.60;;;;;;5945497;24;20159;-84
2024/02/22 10:12:54;;;;;;;2.20;0.90;;;17.90;68.50;;;;;;5966009;24;20147;-84
2024/02/22 10:15:33;;;;;;;4.03;1.10;;;17.90;68.30;;;;;;5967854;24;20160;-84
2024/02/22 10:18:00;;;;;;;2.42;0.90;;;17.90;68.40;;;;;;5925175;24;20166;-84
2024/02/22 10:20:32;;;;;;;2.00;0.65;;;18.00;68.40;;;;;;5943809;24;20163;-84
2024/02/22 10:23:07;;;;;;;1.35;0.70;;;17.90;69.00;;;;;;5919784;24;20242;-83
2024/02/22 10:25:35;;;;;;;1.70;0.90;;;18.00;68.90;;;;;;5963613;24;20231;-84
2024/02/22 10:28:02;;;;;;;1.60;0.88;;;17.90;68.60;;;;;;5964618;24;20540;-83
2024/02/22 10:30:28;;;;;;;3.65;0.75;;;18.00;68.30;;;;;;6041905;23;20156;-83
2024/02/22 10:32:59;;;;;;;3.53;0.80;;;17.90;69.00;;;;;;6112435;23;20143;-84
2024/02/22 10:35:26;;;;;;;2.58;0.88;;;17.90;68.90;;;;;;6089578;23;20190;-84
2024/02/22 10:37:52;;;;;;;5.00;0.80;;;17.90;68.90;;;;;;6110916;23;20235;-82
2024/02/22 10:40:19;;;;;;;3.75;0.90;;;17.80;69.00;;;;;;6110353;23;20139;-82
2024/02/22 10:42:48;;;;;;;3.40;0.90;;;17.80;69.20;;;;;;6110236;23;20148;-83
2024/02/22 10:45:16;;;;;;;2.38;0.70;;;17.80;69.00;;;;;;6109660;23;20557;-84
2024/02/22 10:47:44;;;;;;;2.67;1.05;;;17.90;69.00;;;;;;6151829;23;20603;-84
2024/02/22 10:50:09;;;;;;;3.10;0.73;;;17.80;69.20;;;;;;6223594;23;20265;-84
2024/02/22 10:52:39;;;;;;;2.03;0.88;;;17.80;69.20;;;;;;6172729;23;20152;-84
2024/02/22 10:55:09;;;;;;;2.28;0.70;;;17.80;68.90;;;;;;6173802;23;20145;-83
2024/02/22 10:57:35;;;;;;;1.40;0.70;;;17.90;68.30;;;;;;6175825;23;20161;-83
2024/02/22 11:00:01;;;;;;;1.45;0.80;;;17.90;68.10;;;;;;6174104;23;20150;-83
2024/02/22 11:02:30;;;;;;;2.67;0.95;;;17.90;68.60;;;;;;6200862;23;20156;-84
2024/02/22 11:05:01;;;;;;;3.63;0.80;;;17.90;68.80;;;;;;6176343;23;20160;-85
2024/02/22 11:07:28;;;;;;;2.38;0.70;;;17.90;68.10;;;;;;6133389;23;20151;-84
2024/02/22 11:10:10;;;;;;;2.22;1.00;;;17.90;68.60;;;;;;6108397;23;20610;-84
2024/02/22 11:12:35;;;;;;;2.42;0.75;;;17.90;68.20;;;;;;6157713;23;20175;-84
2024/02/22 11:15:07;;;;;;;2.05;0.80;;;17.90;68.90;;;;;;6132782;23;20143;-84
2024/02/22 11:17:33;;;;;;;1.40;0.93;;;17.90;68.10;;;;;;6132473;23;20155;-85
2024/02/22 11:20:09;;;;;;;3.05;0.98;;;17.90;68.70;;;;;;6134896;23;20159;-83
2024/02/22 11:22:36;;;;;;;3.00;0.88;;;17.90;68.70;;;;;;6159824;23;20158;-83
2024/02/22 11:25:07;;;;;;;3.28;1.00;;;18.00;67.70;;;;;;6143896;23;20194;-84
2024/02/22 11:27:42;;;;;;;1.20;0.70;;;18.00;67.80;;;;;;6172044;23;20170;-83
2024/02/22 11:30:14;;;;;;;2.20;0.70;;;18.00;67.60;;;;;;6165963;23;20219;-83
2024/02/22 11:32:44;;;;;;;2.17;0.85;;;18.00;67.60;;;;;;6196138;23;20158;-83
2024/02/22 11:35:14;;;;;;;1.65;0.90;;;18.10;67.40;;;;;;6144090;23;20194;-83
2024/02/22 11:37:58;;;;;;;3.22;0.77;;;18.00;68.00;;;;;;6184746;22;20149;-84
2024/02/22 11:40:23;;;;;;;1.30;0.88;;;18.00;67.00;;;;;;6160147;22;20591;-83
2024/02/22 11:42:57;;;;;;;3.63;0.80;;;18.00;67.90;;;;;;6204006;22;20197;-85
2024/02/22 11:45:23;;;;;;;1.23;0.80;;;17.90;67.80;;;;;;6231363;22;20167;-84
2024/02/22 11:47:49;;;;;;;2.50;1.00;;;17.90;68.00;;;;;;6256160;22;20200;-83
2024/02/22 11:50:15;;;;;;;3.85;1.00;;;18.00;67.80;;;;;;6205536;22;20488;-84
2024/02/22 11:52:48;;;;;;;1.67;0.70;;;18.00;68.30;;;;;;6232672;22;20148;-84
2024/02/22 11:55:14;;;;;;;3.08;0.90;;;17.80;68.40;;;;;;6157588;22;20483;-83
2024/02/22 11:57:41;;;;;;;1.55;0.80;;;17.90;68.50;;;;;;6229394;22;20499;-83
2024/02/22 12:00:09;;;;;;;1.58;0.80;;;17.90;68.50;;;;;;6230365;22;20445;-83
2024/02/22 12:02:38;;;;;;;3.08;0.82;;;17.80;68.20;;;;;;6208822;22;20148;-84
2024/02/22 12:05:12;;;;;;;1.80;0.90;;;17.90;68.50;;;;;;6204980;22;20156;-84
2024/02/22 12:07:46;;;;;;;1.05;0.75;;;18.00;67.40;;;;;;6197330;23;20522;-84
2024/02/22 12:10:12;;;;;;;2.17;0.65;;;18.00;68.20;;;;;;6225601;23;20148;-83
2024/02/22 12:12:39;;;;;;;2.05;1.10;;;18.00;67.70;;;;;;6198476;23;20138;-83
2024/02/22 12:15:06;;;;;;;3.17;0.90;;;18.10;67.50;;;;;;6196026;23;20688;-85
2024/02/22 12:17:34;;;;;;;0.98;0.60;;;18.00;68.70;;;;;;6198715;23;20181;-83
2024/02/22 12:20:06;;;;;;;1.38;1.10;;;18.00;67.70;;;;;;6200048;23;20149;-84
2024/02/22 12:22:33;;;;;;;2.10;0.88;;;18.00;67.80;;;;;;6200761;23;20212;-85
2024/02/22 12:25:00;;;;;;;1.30;0.70;;;18.00;67.70;;;;;;6202811;23;20185;-84
2024/02/22 12:27:26;;;;;;;1.10;0.70;;;18.10;67.40;;;;;;6227486;22;20260;-83
2024/02/22 12:29:58;;;;;;;1.40;0.90;;;18.10;66.90;;;;;;6259381;22;20149;-83
2024/02/22 12:32:30;;;;;;;2.10;1.10;;;18.10;66.80;;;;;;6157199;22;20160;-83
2024/02/22 12:34:57;;;;;;;1.30;0.70;;;18.00;67.30;;;;;;6181786;22;20155;-84
2024/02/22 12:37:23;;;;;;;1.17;0.80;;;18.10;67.20;;;;;;6232615;22;20613;-83
2024/02/22 12:39:53;;;;;;;2.65;0.95;;;18.10;67.30;;;;;;6208838;22;20145;-84
2024/02/22 12:42:18;;;;;;;1.20;0.98;;;18.10;67.40;;;;;;6205740;22;20572;-85
2024/02/22 12:44:47;;;;;;;2.00;0.90;;;18.00;66.90;;;;;;6190138;23;20157;-84
2024/02/22 12:47:24;;;;;;;1.15;0.80;;;18.10;68.10;;;;;;6162261;23;20213;-85
2024/02/22 12:50:22;;;;;;;2.95;0.98;;;18.00;67.90;;;;;;6128100;23;20174;-85
2024/02/22 12:53:26;;;;;;;2.53;0.80;;;18.00;67.80;;;;;;6097303;23;20171;-84
2024/02/22 12:56:23;;;;;;;2.50;1.23;;;17.90;67.60;;;;;;6069047;23;20181;-85
2024/02/22 12:58:49;;;;;;;2.53;0.80;;;18.00;67.50;;;;;;6025502;23;20149;-86
2024/02/22 13:01:20;;;;;;;2.45;0.82;;;18.00;68.90;;;;;;6068024;23;20154;-86
2024/02/22 13:04:18;;;;;;;3.20;1.17;;;18.00;67.90;;;;;;6044298;23;20589;-84
2024/02/22 13:06:47;;;;;;;1.00;0.82;;;18.20;67.60;;;;;;5990534;23;20194;-84
2024/02/22 13:09:16;;;;;;;2.45;0.98;;;18.10;67.40;;;;;;5966673;23;20222;-84
2024/02/22 13:11:43;;;;;;;0.98;0.85;;;18.20;67.10;;;;;;5944293;23;20155;-83
2024/02/22 13:14:10;;;;;;;1.63;1.10;;;18.10;67.60;;;;;;5979915;24;20159;-84
2024/02/22 13:17:10;;;;;;;4.20;0.80;;;18.10;67.20;;;;;;5982851;24;20174;-87
2024/02/22 13:19:56;;;;;;;2.15;0.80;;;18.20;67.90;;;;;;6009288;23;20182;-87
2024/02/22 13:22:22;;;;;;;2.25;0.90;;;18.10;68.10;;;;;;5959857;24;20203;-85
2024/02/22 13:24:50;;;;;;;2.08;0.85;;;18.10;68.20;;;;;;5928586;24;20189;-83
2024/02/22 13:27:16;;;;;;;1.90;0.70;;;18.20;67.40;;;;;;5928915;24;20168;-85
2024/02/22 13:29:47;;;;;;;1.00;0.75;;;18.30;67.40;;;;;;5928250;24;20168;-85
2024/02/22 13:32:19;;;;;;;1.48;0.95;;;18.20;67.30;;;;;;5924331;23;20157;-83
2024/02/22 13:34:45;;;;;;;4.82;1.13;;;18.20;68.10;;;;;;5961519;24;20162;-83
2024/02/22 13:37:11;;;;;;;6.20;1.15;;;18.10;68.00;;;;;;5985260;23;20155;-83
2024/02/22 13:39:39;;;;;;;4.53;0.80;;;18.10;68.10;;;;;;5992057;23;20151;-84
2024/02/22 13:42:12;;;;;;;1.98;0.80;;;18.20;67.50;;;;;;6007295;23;20181;-83
2024/02/22 13:44:42;;;;;;;2.50;1.20;;;18.20;67.50;;;;;;6048560;23;20169;-84
2024/02/22 13:47:14;;;;;;;1.88;0.90;;;18.30;66.80;;;;;;6030396;23;20561;-85
2024/02/22 13:49:47;;;;;;;1.45;0.98;;;18.30;67.00;;;;;;6065569;23;20159;-85
2024/02/22 13:52:13;;;;;;;5.03;1.20;;;18.30;66.70;;;;;;6078900;23;20149;-85
2024/02/22 13:54:47;;;;;;;5.32;1.00;;;18.30;67.30;;;;;;6164525;23;20437;-85
2024/02/22 13:57:15;;;;;;;2.38;1.00;;;18.30;67.30;;;;;;6204342;23;20159;-84
2024/02/22 13:59:51;;;;;;;3.00;0.80;;;18.30;66.60;;;;;;6227100;23;20217;-84
2024/02/22 14:02:19;;;;;;;5.63;1.10;;;18.30;67.00;;;;;;6228642;23;20145;-83
2024/02/22 14:04:49;;;;;;;5.35;1.00;;;18.30;67.40;;;;;;6206606;23;20153;-84
2024/02/22 14:07:16;;;;;;;3.25;1.00;;;18.40;67.20;;;;;;6169047;23;20634;-83
2024/02/22 14:09:48;;;;;;;3.08;1.10;;;18.30;67.80;;;;;;6168289;23;20162;-82
2024/02/22 14:12:14;;;;;;;6.85;1.52;;;18.30;67.80;;;;;;6164530;23;20150;-84
2024/02/22 14:14:43;;;;;;;4.70;1.30;;;18.30;68.10;;;;;;6190180;23;20217;-86
2024/02/22 14:18:05;;;;;;;;;;;;;;;;;;;;;
2024/02/22 14:20:47;;;;;;;6.25;1.23;;;18.20;68.70;;;;;;6135660;23;20638;-85
2024/02/22 14:23:24;;;;;;;5.15;1.25;;;18.30;68.90;;;;;;6161090;23;20162;-85
2024/02/22 14:26:24;;;;;;;6.18;1.35;;;18.20;69.20;;;;;;6152994;23;20205;-85
2024/02/22 14:29:03;;;;;;;5.05;1.27;;;18.30;68.70;;;;;;6089027;23;20152;-85
2024/02/22 14:31:31;;;;;;;1.92;0.85;;;18.20;68.30;;;;;;6032882;23;20639;-84
2024/02/22 14:34:04;;;;;;;7.57;1.40;;;18.30;69.20;;;;;;6078236;23;20156;-83
2024/02/22 14:36:42;;;;;;;14.82;1.63;;;18.20;69.20;;;;;;6103978;23;20233;-85
2024/02/22 14:39:23;;;;;;;3.90;1.40;;;18.20;68.60;;;;;;6041930;23;20239;-85
2024/02/22 14:41:59;;;;;;;6.82;1.20;;;18.30;68.10;;;;;;6090314;23;20602;-85
2024/02/22 14:44:30;;;;;;;10.23;1.63;;;18.30;68.50;;;;;;6043210;23;20164;-87
2024/02/22 14:47:37;;;;;;;7.32;1.23;;;18.30;68.70;;;;;;6067317;23;20718;-85
2024/02/22 14:50:58;;;;;;;5.00;1.05;;;18.30;68.50;;;;;;5981484;23;20167;-84
2024/02/22 14:53:35;;;;;;;7.68;1.30;;;18.20;69.00;;;;;;5968688;24;20182;-85
2024/02/22 14:56:02;;;;;;;7.75;1.42;;;18.20;69.50;;;;;;5959669;24;20162;-84
2024/02/22 14:58:29;;;;;;;6.32;1.45;;;18.20;68.70;;;;;;5982526;24;20155;-84
2024/02/22 15:01:06;;;;;;;9.18;1.50;;;18.20;69.10;;;;;;5981802;24;20199;-85
2024/02/22 15:03:46;;;;;;;8.10;1.48;;;18.20;69.30;;;;;;5932769;24;20170;-84
2024/02/22 15:06:16;;;;;;;3.83;1.08;;;18.20;69.60;;;;;;5912910;24;20211;-84
2024/02/22 15:08:42;;;;;;;3.65;1.60;;;18.20;69.60;;;;;;5908354;24;20167;-84
2024/02/22 15:11:08;;;;;;;7.38;1.50;;;18.20;69.60;;;;;;5960802;23;20159;-83
2024/02/22 15:13:50;;;;;;;6.90;1.42;;;18.20;69.40;;;;;;5988900;23;20246;-83
2024/02/22 15:16:43;;;;;;;4.30;1.27;;;18.20;69.10;;;;;;6010563;23;20158;-84
2024/02/22 15:22:39;;;;;;;4.03;1.13;;;18.30;69.50;;;;;;5955402;24;20163;-84
2024/02/22 15:25:11;;;;;;;4.03;1.15;;;18.20;68.70;;;;;;5953644;24;20195;-84
2024/02/22 15:27:42;;;;;;;5.72;1.25;;;18.30;68.80;;;;;;5998192;23;20193;-84
2024/02/22 15:30:13;;;;;;;7.90;1.10;;;18.30;69.00;;;;;;6019745;23;20628;-84
2024/02/22 15:32:39;;;;;;;3.90;1.00;;;18.20;69.20;;;;;;6066537;23;20201;-83
2024/02/22 15:35:05;;;;;;;8.98;1.38;;;18.20;69.50;;;;;;6042201;23;20153;-83
2024/02/22 15:37:31;;;;;;;4.35;1.20;;;18.20;69.10;;;;;;6043395;23;20173;-82
2024/02/22 15:39:57;;;;;;;4.10;1.00;;;18.20;69.60;;;;;;6042544;23;20224;-84
2024/02/22 15:42:40;;;;;;;4.32;1.50;;;18.20;69.60;;;;;;5986279;23;20271;-83
2024/02/22 15:45:07;;;;;;;2.22;1.20;;;18.20;69.40;;;;;;5927113;24;20181;-83
2024/02/22 15:47:43;;;;;;;9.07;1.35;;;18.20;69.50;;;;;;5926372;24;20161;-84
2024/02/22 15:50:17;;;;;;;3.85;1.20;;;18.20;69.60;;;;;;5813362;24;20594;-83
2024/02/22 15:52:43;;;;;;;6.10;1.02;;;18.20;70.20;;;;;;5946965;23;20538;-82